createdAt,value
2023-02-20T00:00:06.151Z,2.83
2023-02-20T00:02:37.083Z,2.28
2023-02-20T00:05:07.920Z,3.28
2023-02-20T00:07:37.996Z,2.78
2023-02-20T00:10:10.499Z,3.53
2023-02-20T00:12:41.552Z,1.83
2023-02-20T00:15:15.464Z,3.08
2023-02-20T00:17:48.380Z,2.35
2023-02-20T00:20:24.993Z,2.08
2023-02-20T00:22:56.598Z,1.80
2023-02-20T00:25:27.229Z,2.67
2023-02-20T00:27:57.377Z,2.70
2023-02-20T00:30:28.123Z,2.95
2023-02-20T00:33:01.394Z,2.85
2023-02-20T00:35:31.944Z,1.77
2023-02-20T00:38:02.098Z,2.70
2023-02-20T00:40:32.693Z,2.42
2023-02-20T00:43:04.620Z,2.92
2023-02-20T00:45:40.549Z,2.90
2023-02-20T00:48:10.754Z,2.30
2023-02-20T00:50:42.393Z,2.42
2023-02-20T00:53:13.617Z,1.75
2023-02-20T00:55:43.696Z,2.88
2023-02-20T00:58:14.139Z,2.42
2023-02-20T01:00:44.265Z,2.67
2023-02-20T01:03:15.592Z,2.63
2023-02-20T01:05:46.134Z,2.70
2023-02-20T01:08:16.632Z,2.17
2023-02-20T01:10:46.709Z,2.78
2023-02-20T01:13:17.239Z,2.70
2023-02-20T01:15:47.399Z,2.85
2023-02-20T01:18:18.469Z,2.75
2023-02-20T01:20:48.613Z,2.67
2023-02-20T01:23:19.112Z,1.90
2023-02-20T01:25:49.004Z,2.88
2023-02-20T01:28:19.746Z,1.98
2023-02-20T01:30:50.112Z,1.70
2023-02-20T01:33:20.695Z,2.25
2023-02-20T01:35:50.760Z,2.60
2023-02-20T01:38:24.210Z,2.90
2023-02-20T01:40:54.330Z,3.20
2023-02-20T01:43:24.965Z,1.77
2023-02-20T01:45:55.329Z,2.90
2023-02-20T01:48:27.913Z,2.78
2023-02-20T01:51:01.638Z,2.10
2023-02-20T01:53:33.996Z,2.13
2023-02-20T01:56:09.882Z,1.70
2023-02-20T01:58:47.311Z,3.00
2023-02-20T02:01:17.639Z,2.75
2023-02-20T02:03:53.400Z,2.67
2023-02-20T02:06:27.072Z,2.10
2023-02-20T02:09:02.951Z,2.85
2023-02-20T02:11:33.246Z,2.22
2023-02-20T02:14:06.154Z,2.70
2023-02-20T02:16:36.239Z,2.13
2023-02-20T02:19:29.508Z,3.42
2023-02-20T02:22:18.071Z,2.53
2023-02-20T02:25:33.836Z,2.63
2023-02-20T02:28:39.424Z,2.75
2023-02-20T02:31:25.348Z,2.33
2023-02-20T02:34:32.859Z,2.38
2023-02-20T02:37:25.118Z,2.72
2023-02-20T02:40:04.280Z,2.50
2023-02-20T02:43:02.015Z,3.55
2023-02-20T02:45:45.478Z,1.95
2023-02-20T02:48:30.002Z,2.92
2023-02-20T02:51:17.756Z,2.63
2023-02-20T02:54:10.659Z,2.92
2023-02-20T02:56:47.475Z,2.65
2023-02-20T02:59:33.621Z,2.55
2023-02-20T03:02:09.762Z,2.90
2023-02-20T03:04:41.458Z,2.45
2023-02-20T03:07:17.953Z,2.10
2023-02-20T03:09:55.457Z,2.22
2023-02-20T03:12:28.039Z,1.80
2023-02-20T03:15:24.802Z,1.75
2023-02-20T03:18:01.908Z,2.00
2023-02-20T03:20:32.060Z,2.35
2023-02-20T03:23:06.085Z,2.83
2023-02-20T03:25:48.021Z,2.70
2023-02-20T03:28:29.880Z,2.35
2023-02-20T03:31:12.891Z,2.50
2023-02-20T03:34:46.503Z,2.00
2023-02-20T03:37:39.855Z,2.50
2023-02-20T03:40:35.653Z,2.25
2023-02-20T03:43:27.535Z,2.65
2023-02-20T03:46:09.063Z,2.45
2023-02-20T03:49:01.859Z,2.53
2023-02-20T03:51:35.009Z,2.80
2023-02-20T03:54:17.541Z,3.22
2023-02-20T03:56:56.881Z,3.53
2023-02-20T03:59:53.959Z,3.30
2023-02-20T04:02:50.961Z,2.95
2023-02-20T04:05:26.696Z,2.90
2023-02-20T04:08:22.150Z,3.40
2023-02-20T04:11:02.859Z,2.53
2023-02-20T04:13:35.347Z,2.78
2023-02-20T04:16:06.557Z,2.70
2023-02-20T04:18:37.095Z,2.45
2023-02-20T04:21:16.064Z,2.42
2023-02-20T04:23:49.055Z,2.58
2023-02-20T04:26:22.504Z,2.67
2023-02-20T04:28:54.437Z,2.22
2023-02-20T04:31:25.352Z,2.63
2023-02-20T04:33:55.456Z,2.78
2023-02-20T04:36:27.636Z,3.60
2023-02-20T04:39:00.489Z,2.58
2023-02-20T04:41:34.271Z,2.92
2023-02-20T04:44:22.842Z,2.70
2023-02-20T04:46:54.490Z,2.42
2023-02-20T04:49:24.728Z,3.55
2023-02-20T04:51:58.082Z,2.75
2023-02-20T04:54:28.391Z,2.67
2023-02-20T04:56:59.097Z,2.63
2023-02-20T04:59:29.270Z,3.38
2023-02-20T05:02:02.218Z,2.50
2023-02-20T05:07:02.235Z,3.45
2023-02-20T05:09:32.941Z,3.40
2023-02-20T05:12:03.479Z,3.92
2023-02-20T05:14:33.553Z,3.97
2023-02-20T05:17:04.104Z,4.18
2023-02-20T05:19:34.182Z,3.30
2023-02-20T05:22:20.204Z,3.78
2023-02-20T05:24:52.272Z,3.13
2023-02-20T05:29:59.296Z,3.30
2023-02-20T05:32:31.844Z,4.32
2023-02-20T05:35:01.946Z,3.58
2023-02-20T05:37:33.749Z,2.88
2023-02-20T05:40:04.567Z,4.00
2023-02-20T05:42:37.242Z,3.10
2023-02-20T05:45:08.002Z,3.28
2023-02-20T05:47:40.023Z,4.20
2023-02-20T05:50:10.562Z,3.05
2023-02-20T05:52:41.014Z,3.15
2023-02-20T05:55:11.211Z,3.15
2023-02-20T05:57:41.698Z,3.10
2023-02-20T06:00:12.448Z,2.88
2023-02-20T06:02:42.917Z,3.00
2023-02-20T06:05:12.882Z,3.65
2023-02-20T06:07:47.262Z,3.72
2023-02-20T06:10:20.208Z,3.95
2023-02-20T06:12:51.248Z,3.67
2023-02-20T06:15:21.447Z,3.65
2023-02-20T06:17:52.035Z,3.47
2023-02-20T06:20:24.719Z,3.30
2023-02-20T06:22:55.245Z,3.38
2023-02-20T06:25:25.362Z,2.85
2023-02-20T06:27:55.875Z,4.22
2023-02-20T06:30:26.103Z,3.22
2023-02-20T06:32:57.028Z,3.78
2023-02-20T06:35:26.919Z,3.83
2023-02-20T06:37:57.457Z,3.10
2023-02-20T06:40:27.543Z,3.60
2023-02-20T06:42:58.092Z,3.10
2023-02-20T06:45:28.270Z,3.67
2023-02-20T06:47:59.495Z,3.45
2023-02-20T06:50:29.547Z,3.30
2023-02-20T06:53:01.035Z,2.95
2023-02-20T06:55:31.857Z,3.10
2023-02-20T06:58:03.427Z,2.90
2023-02-20T07:00:33.552Z,4.40
2023-02-20T07:03:04.061Z,4.80
2023-02-20T07:05:33.914Z,2.60
2023-02-20T07:08:04.399Z,2.80
2023-02-20T07:24:12.069Z,4.00
2023-02-20T07:26:43.020Z,3.78
2023-02-20T07:29:14.859Z,3.67
2023-02-20T07:31:45.502Z,3.00
2023-02-20T07:34:15.777Z,3.67
2023-02-20T07:36:46.408Z,3.17
2023-02-20T07:39:16.639Z,2.40
2023-02-20T07:41:47.458Z,2.80
2023-02-20T07:44:45.629Z,2.35
2023-02-20T07:47:16.252Z,3.10
2023-02-20T07:49:46.506Z,2.58
2023-02-20T07:52:16.930Z,2.80
2023-02-20T07:54:47.004Z,3.45
2023-02-20T07:57:17.591Z,3.05
2023-02-20T07:59:47.834Z,3.15
2023-02-20T08:02:18.320Z,2.88
2023-02-20T08:04:48.229Z,3.63
2023-02-20T08:07:18.796Z,3.80
2023-02-20T08:09:49.637Z,3.03
2023-02-20T08:12:20.210Z,2.95
2023-02-20T08:14:53.054Z,2.60
2023-02-20T08:17:24.212Z,3.17
2023-02-20T08:19:56.500Z,2.22
2023-02-20T08:22:39.983Z,3.33
2023-02-20T08:25:11.450Z,2.10
2023-02-20T08:27:50.822Z,2.20
2023-02-20T08:30:25.968Z,2.95
2023-02-20T08:32:57.297Z,2.95
2023-02-20T08:35:27.450Z,2.88
2023-02-20T08:37:57.995Z,3.08
2023-02-20T08:40:28.089Z,2.42
2023-02-20T08:42:58.864Z,1.83
2023-02-20T08:45:29.066Z,2.88
2023-02-20T08:48:03.337Z,2.88
2023-02-20T08:50:33.461Z,2.08
2023-02-20T08:53:03.470Z,2.45
2023-02-20T08:55:33.962Z,3.10
2023-02-20T08:58:04.034Z,2.72
2023-02-20T09:00:34.708Z,2.50
2023-02-20T09:03:08.475Z,2.78
2023-02-20T09:05:39.487Z,2.17
2023-02-20T09:08:09.615Z,2.40
2023-02-20T09:10:40.198Z,2.80
2023-02-20T09:13:10.407Z,2.00
2023-02-20T09:15:41.269Z,2.70
2023-02-20T09:18:15.476Z,1.85
2023-02-20T09:20:46.193Z,2.72
2023-02-20T09:23:16.334Z,2.45
2023-02-20T09:25:46.892Z,3.08
2023-02-20T09:28:16.964Z,2.05
2023-02-20T09:30:47.774Z,3.10
2023-02-20T09:33:18.365Z,2.47
2023-02-20T09:35:50.609Z,3.17
2023-02-20T09:38:20.754Z,2.53
2023-02-20T09:40:54.599Z,2.55
2023-02-20T09:43:27.951Z,2.80
2023-02-20T09:46:17.965Z,2.83
2023-02-20T09:49:04.685Z,3.03
2023-02-20T09:51:40.078Z,3.10
2023-02-20T09:54:13.223Z,2.78
2023-02-20T09:56:50.357Z,2.67
2023-02-20T09:59:29.694Z,2.63
2023-02-20T10:02:25.468Z,2.13
2023-02-20T10:05:03.773Z,2.85
2023-02-20T10:07:41.350Z,2.85
2023-02-20T10:10:27.312Z,3.05
2023-02-20T10:13:31.732Z,2.80
2023-02-20T10:16:26.786Z,2.88
2023-02-20T10:19:06.833Z,2.58
2023-02-20T10:21:54.739Z,2.45
2023-02-20T10:24:41.897Z,2.88
2023-02-20T10:27:31.576Z,2.78
2023-02-20T10:30:06.532Z,2.60
2023-02-20T10:32:39.654Z,2.50
2023-02-20T10:35:15.231Z,2.42
2023-02-20T10:37:54.836Z,3.00
2023-02-20T10:40:31.739Z,2.60
2023-02-20T10:43:07.591Z,3.28
2023-02-20T10:46:13.899Z,1.98
2023-02-20T10:48:46.432Z,2.47
2023-02-20T10:51:29.498Z,3.63
2023-02-20T10:54:01.378Z,3.70
2023-02-20T10:59:14.106Z,3.15
2023-02-20T11:01:45.682Z,2.83
2023-02-20T11:04:28.571Z,3.70
2023-02-20T11:07:10.551Z,4.03
2023-02-20T11:09:42.469Z,4.07
2023-02-20T11:12:44.424Z,3.33
2023-02-20T11:15:18.643Z,3.20
2023-02-20T11:17:53.308Z,3.83
2023-02-20T11:20:39.778Z,3.95
2023-02-20T11:23:11.471Z,3.75
2023-02-20T11:25:43.157Z,3.88
2023-02-20T11:33:50.445Z,3.30
2023-02-20T11:36:28.836Z,3.33
2023-02-20T11:41:38.486Z,3.53
2023-02-20T11:44:24.452Z,3.85
2023-02-20T11:47:10.968Z,3.80
2023-02-20T11:49:41.794Z,3.70
2023-02-20T11:52:25.570Z,3.70
2023-02-20T11:55:22.759Z,5.38
2023-02-20T11:57:53.532Z,5.60
2023-02-20T12:00:29.665Z,5.43
2023-02-20T12:03:14.805Z,5.13
2023-02-20T12:05:49.578Z,5.40
2023-02-20T12:08:45.382Z,5.32
2023-02-20T12:13:52.390Z,5.28
2023-02-20T12:17:03.895Z,5.65
2023-02-20T12:19:55.807Z,4.85
2023-02-20T12:22:36.353Z,5.63
2023-02-20T12:25:28.175Z,4.90
2023-02-20T12:28:15.233Z,5.13
2023-02-20T12:31:05.609Z,4.90
2023-02-20T12:33:54.032Z,4.43
2023-02-20T12:36:35.984Z,5.07
2023-02-20T12:39:34.040Z,4.78
2023-02-20T12:42:36.707Z,4.35
2023-02-20T12:45:19.044Z,5.63
2023-02-20T12:47:54.098Z,4.15
2023-02-20T12:51:00.154Z,4.70
2023-02-20T12:54:02.126Z,4.53
2023-02-20T12:56:40.977Z,4.07
2023-02-20T12:59:28.059Z,5.10
2023-02-20T13:02:06.133Z,4.13
2023-02-20T13:04:58.955Z,4.13
2023-02-20T13:07:47.175Z,4.30
2023-02-20T13:10:19.472Z,3.78
2023-02-20T13:12:54.135Z,3.13
2023-02-20T13:15:55.157Z,3.33
2023-02-20T13:18:25.219Z,3.88
2023-02-20T13:21:05.215Z,3.50
2023-02-20T13:23:39.706Z,3.58
2023-02-20T13:26:35.260Z,3.10
2023-02-20T13:29:17.669Z,3.00
2023-02-20T13:31:58.321Z,3.53
2023-02-20T13:34:32.802Z,3.22
2023-02-20T13:37:03.401Z,3.63
2023-02-20T13:39:34.860Z,3.25
2023-02-20T13:42:08.451Z,3.35
2023-02-20T13:44:44.137Z,3.47
2023-02-20T13:47:26.920Z,3.85
2023-02-20T13:50:01.198Z,3.33
2023-02-20T13:52:43.815Z,3.53
2023-02-20T13:55:17.279Z,2.85
2023-02-20T13:57:52.148Z,3.25
2023-02-20T14:00:43.766Z,3.20
2023-02-20T14:03:29.403Z,2.95
2023-02-20T14:06:20.884Z,1.98
2023-02-20T14:08:51.548Z,3.08
2023-02-20T14:11:53.469Z,2.53
2023-02-20T14:14:46.986Z,2.35
2023-02-20T14:17:23.398Z,3.38
2023-02-20T14:20:14.359Z,2.20
2023-02-20T14:22:45.325Z,2.63
2023-02-20T14:25:21.248Z,2.55
2023-02-20T14:27:52.415Z,2.67
2023-02-20T14:30:29.685Z,2.78
2023-02-20T14:33:02.873Z,2.88
2023-02-20T14:35:50.737Z,2.75
2023-02-20T14:38:27.464Z,2.90
2023-02-20T14:40:59.651Z,2.90
2023-02-20T14:43:31.732Z,3.90
2023-02-20T14:46:08.025Z,5.88
2023-02-20T14:48:43.052Z,7.18
2023-02-20T14:51:13.098Z,8.43
2023-02-20T14:53:58.137Z,7.03
2023-02-20T14:56:29.002Z,4.63
2023-02-20T14:59:00.701Z,6.47
2023-02-20T15:01:40.131Z,5.55
2023-02-20T15:04:17.245Z,4.30
2023-02-20T15:06:50.900Z,5.55
2023-02-20T15:09:23.349Z,6.18
2023-02-20T15:12:00.427Z,4.57
2023-02-20T15:14:34.463Z,4.90
2023-02-20T15:17:23.167Z,4.15
2023-02-20T15:19:54.271Z,4.80
2023-02-20T15:22:29.037Z,4.20
2023-02-20T15:25:37.514Z,5.18
2023-02-20T15:28:21.427Z,5.85
2023-02-20T15:31:10.518Z,6.15
2023-02-20T15:33:49.046Z,8.45
2023-02-20T15:38:57.729Z,5.85
2023-02-20T15:41:28.183Z,5.30
2023-02-20T15:43:58.233Z,5.47
2023-02-20T15:46:29.218Z,5.60
2023-02-20T15:49:01.767Z,6.80
2023-02-20T15:51:35.011Z,5.78
2023-02-20T15:54:05.888Z,4.50
2023-02-20T15:56:36.750Z,5.00
2023-02-20T15:59:10.509Z,4.15
2023-02-20T16:01:41.880Z,3.25
2023-02-20T16:04:16.792Z,3.38
2023-02-20T16:06:48.216Z,2.90
2023-02-20T16:09:18.726Z,4.07
2023-02-20T16:11:49.499Z,4.78
2023-02-20T16:14:19.590Z,4.10
2023-02-20T16:16:54.737Z,3.40
2023-02-20T16:19:40.160Z,3.38
2023-02-20T16:22:13.490Z,2.78
2023-02-20T16:24:45.677Z,3.13
2023-02-20T16:27:29.168Z,2.92
2023-02-20T16:29:59.639Z,3.42
2023-02-20T16:32:31.472Z,2.53
2023-02-20T16:35:02.787Z,3.20
2023-02-20T16:37:33.679Z,3.33
2023-02-20T16:40:03.699Z,2.50
2023-02-20T16:42:41.413Z,2.05
2023-02-20T16:45:17.065Z,2.35
2023-02-20T16:47:52.293Z,2.60
2023-02-20T16:50:26.166Z,2.78
2023-02-20T16:52:58.552Z,2.53
2023-02-20T16:55:34.574Z,2.40
2023-02-20T16:58:06.153Z,2.63
2023-02-20T17:00:56.648Z,2.15
2023-02-20T17:03:28.963Z,1.70
2023-02-20T17:06:02.030Z,3.42
2023-02-20T17:08:32.595Z,3.92
2023-02-20T17:11:02.618Z,4.60
2023-02-20T17:13:33.169Z,3.92
2023-02-20T17:16:03.297Z,4.60
2023-02-20T17:18:33.834Z,3.90
2023-02-20T17:21:03.893Z,3.63
2023-02-20T17:23:33.940Z,3.85
2023-02-20T17:26:04.949Z,4.10
2023-02-20T17:28:35.003Z,4.13
2023-02-20T17:31:05.105Z,4.43
2023-02-20T17:33:36.341Z,4.85
2023-02-20T17:36:06.670Z,4.18
2023-02-20T17:38:37.134Z,3.67
2023-02-20T17:41:07.265Z,3.35
2023-02-20T17:43:51.938Z,3.03
2023-02-20T17:46:25.752Z,3.45
2023-02-20T17:48:56.268Z,2.42
2023-02-20T17:51:26.402Z,2.28
2023-02-20T17:53:56.955Z,1.58
2023-02-20T17:56:27.166Z,2.58
2023-02-20T17:58:57.856Z,2.25
2023-02-20T18:01:28.683Z,2.80
2023-02-20T18:03:59.268Z,2.60
2023-02-20T18:06:29.364Z,2.45
2023-02-20T18:08:59.959Z,2.17
2023-02-20T18:11:30.559Z,2.15
2023-02-20T18:14:01.142Z,2.00
2023-02-20T18:16:31.341Z,1.77
2023-02-20T18:19:03.363Z,1.98
2023-02-20T18:21:33.797Z,1.48
2023-02-20T18:24:06.038Z,1.55
2023-02-20T18:26:37.136Z,1.50
2023-02-20T18:29:07.819Z,1.58
2023-02-20T18:31:37.945Z,1.63
2023-02-20T18:34:08.515Z,1.90
2023-02-20T18:36:39.041Z,1.52
2023-02-20T18:39:11.117Z,1.50
2023-02-20T18:41:41.254Z,0.80
2023-02-20T18:44:11.920Z,1.65
2023-02-20T18:46:45.082Z,0.90
2023-02-20T18:49:15.578Z,0.50
2023-02-20T18:51:46.477Z,1.15
2023-02-20T18:54:20.899Z,1.27
2023-02-20T18:56:52.611Z,1.15
2023-02-20T18:59:24.091Z,1.77
2023-02-20T19:01:58.738Z,0.52
2023-02-20T19:04:30.260Z,1.13
2023-02-20T19:07:01.135Z,1.05
2023-02-20T19:09:37.886Z,1.33
2023-02-20T19:12:09.745Z,0.98
2023-02-20T19:14:41.495Z,1.20
2023-02-20T19:17:13.883Z,1.13
2023-02-20T19:19:44.520Z,0.80
2023-02-20T19:22:14.620Z,1.23
2023-02-20T19:24:45.289Z,0.57
2023-02-20T19:27:15.358Z,1.02
2023-02-20T19:29:46.948Z,1.13
2023-02-20T19:32:17.170Z,0.93
2023-02-20T19:34:48.774Z,0.40
2023-02-20T19:37:19.386Z,1.02
2023-02-20T19:39:49.900Z,1.05
2023-02-20T19:42:20.469Z,1.02
2023-02-20T19:44:51.153Z,0.88
2023-02-20T19:47:21.295Z,0.88
2023-02-20T19:49:52.928Z,0.60
2023-02-20T19:52:23.038Z,1.05
2023-02-20T19:54:53.562Z,1.13
2023-02-20T19:57:23.720Z,0.93
2023-02-20T19:59:55.031Z,1.13
2023-02-20T20:02:25.839Z,0.30
2023-02-20T20:04:56.430Z,0.90
2023-02-20T20:07:26.397Z,1.35
2023-02-20T20:09:56.908Z,1.08
2023-02-20T20:12:45.160Z,1.17
2023-02-20T20:15:26.588Z,0.60
2023-02-20T20:17:59.720Z,1.13
2023-02-20T20:20:34.000Z,0.57
2023-02-20T20:23:06.866Z,1.00
2023-02-20T20:25:37.627Z,1.08
2023-02-20T20:28:10.375Z,0.93
2023-02-20T20:30:41.088Z,1.23
2023-02-20T20:33:11.396Z,0.50
2023-02-20T20:35:41.904Z,1.30
2023-02-20T20:38:12.036Z,0.20
2023-02-20T20:40:43.091Z,1.25
2023-02-20T20:43:15.905Z,0.57
2023-02-20T20:45:46.414Z,0.30
2023-02-20T20:48:16.529Z,1.10
2023-02-20T20:50:46.601Z,0.50
2023-02-20T20:53:17.486Z,0.90
2023-02-20T20:55:47.758Z,0.43
2023-02-20T20:58:18.352Z,1.27
2023-02-20T21:00:48.723Z,1.33
2023-02-20T21:03:19.822Z,1.08
2023-02-20T21:05:50.027Z,0.60
2023-02-20T21:08:20.579Z,0.32
2023-02-20T21:10:50.459Z,0.90
2023-02-20T21:13:20.900Z,0.90
2023-02-20T21:15:51.090Z,0.43
2023-02-20T21:18:21.599Z,0.40
2023-02-20T21:20:51.602Z,0.60
2023-02-20T21:23:22.069Z,1.27
2023-02-20T21:25:52.272Z,1.33
2023-02-20T21:28:22.770Z,1.15
2023-02-20T21:30:52.947Z,1.58
2023-02-20T21:33:23.484Z,1.23
2023-02-20T21:35:53.562Z,1.33
2023-02-20T21:38:24.149Z,1.40
2023-02-20T21:40:56.862Z,1.27
2023-02-20T21:43:45.814Z,0.65
2023-02-20T21:46:16.219Z,1.75
2023-02-20T21:48:46.841Z,0.50
2023-02-20T21:51:22.003Z,0.73
2023-02-20T21:53:52.481Z,1.02
2023-02-20T21:56:22.582Z,1.30
2023-02-20T21:59:06.283Z,1.30
2023-02-20T22:01:38.946Z,0.63
2023-02-20T22:04:11.820Z,0.70
2023-02-20T22:06:42.752Z,0.70
2023-02-20T22:09:34.913Z,0.50
2023-02-20T22:12:24.552Z,2.42
2023-02-20T22:15:13.791Z,3.80
2023-02-20T22:18:02.044Z,2.38
2023-02-20T22:20:50.951Z,2.17
2023-02-20T22:23:39.196Z,1.42
2023-02-20T22:26:27.965Z,2.58
2023-02-20T22:29:16.124Z,2.30
2023-02-20T22:32:04.824Z,1.63
2023-02-20T22:35:09.315Z,1.55
2023-02-20T22:37:59.719Z,1.95
2023-02-20T22:40:48.167Z,1.05
2023-02-20T22:43:37.203Z,1.05
2023-02-20T22:46:27.508Z,2.22
2023-02-20T22:49:17.492Z,1.10
2023-02-20T22:52:09.568Z,0.88
2023-02-20T22:55:04.831Z,1.25
2023-02-20T22:57:54.196Z,1.10
2023-02-20T23:00:43.648Z,0.98
2023-02-20T23:03:32.154Z,0.73
2023-02-20T23:06:20.919Z,0.60
2023-02-20T23:09:09.950Z,1.80
2023-02-20T23:11:59.118Z,1.85
2023-02-20T23:14:47.074Z,1.25
2023-02-20T23:17:37.484Z,1.85
2023-02-20T23:20:29.989Z,1.00
2023-02-20T23:23:19.032Z,0.90
2023-02-20T23:26:07.445Z,1.17
2023-02-20T23:28:56.412Z,1.75
2023-02-20T23:31:57.144Z,0.47
2023-02-20T23:34:48.093Z,1.70
2023-02-20T23:37:36.557Z,1.48
2023-02-20T23:40:35.942Z,1.45
2023-02-20T23:43:26.416Z,1.45
2023-02-20T23:46:15.576Z,1.88
2023-02-20T23:49:03.985Z,2.55
2023-02-20T23:51:52.961Z,2.92
2023-02-20T23:54:41.643Z,2.60
2023-02-20T23:57:30.406Z,2.53
